Mito, Japan
Current Conditions -  °F | °C
As of 1:00 AM on Sunday 26 Oct 2014 (Local Time) from RJAH Reporting Station
Broken Clouds Broken Clouds  
Wind Chill: 57°   Ceiling: 2500
Heat Index: 57°   Visibility: 5mi
Dew Point: 54°   Wind: 1mph
Humidity: 88%   Direction: NA
Pressure: 30.15"   Gusts: NA
Location:  36.38°N, 140.47°E
Report Text: RJAH 251600Z VRB01KT 8000 FEW020 BKN025 14/12 Q1021
Loading
Personal Weather Stations






























Interactive Weather Map
Tropical Storm Tracking
New forecast layout! Learn more

10-Day Weather Forecast

Advertisements
Track Severe Weather on mobile